Time;durP1;ratioP1;P1;durP2;ratioP2;P2;SDS_P1;SDS_P2;PMS_P1;PMS_P2;Temp;Humidity;BMP_temperature;BMP_pressure;BME280_temperature;BME280_humidity;BME280_pressure;Samples;Min_cycle;Max_cycle;Signal;HPM_P1;HPM_P2
2021/12/07 00:01:40;;;;;;;34.17;17.30;;;;;;;-0.42;100.00;100520.13;5087331;28;20028;-72
2021/12/07 00:04:07;;;;;;;37.72;17.58;;;;;;;-0.39;100.00;100532.94;5087626;28;20382;-72
2021/12/07 00:06:33;;;;;;;34.58;17.38;;;;;;;-0.37;100.00;100537.31;5087440;28;20425;-70
2021/12/07 00:08:59;;;;;;;39.53;17.65;;;;;;;-0.34;100.00;100539.19;5086079;28;20514;-70
2021/12/07 00:11:27;;;;;;;42.38;18.65;;;;;;;-0.32;100.00;100535.09;5081962;28;20067;-71
2021/12/07 00:13:53;;;;;;;39.63;19.08;;;;;;;-0.34;100.00;100534.13;5087968;28;20056;-71
2021/12/07 00:16:19;;;;;;;39.92;18.73;;;;;;;-0.34;100.00;100531.59;5084096;28;20161;-71
2021/12/07 00:18:46;;;;;;;47.10;21.17;;;;;;;-0.33;100.00;100533.34;5083944;28;20016;-71
2021/12/07 00:21:16;;;;;;;45.65;20.77;;;;;;;-0.29;100.00;100537.84;5082798;28;20032;-71
2021/12/07 00:23:41;;;;;;;45.22;22.15;;;;;;;-0.29;100.00;100532.78;5084425;28;20483;-71
2021/12/07 00:26:07;;;;;;;46.05;21.60;;;;;;;-0.30;100.00;100539.50;5085065;28;20043;-71
2021/12/07 00:28:33;;;;;;;45.63;21.55;;;;;;;-0.28;100.00;100534.53;5086367;28;20394;-71
2021/12/07 00:31:09;;;;;;;48.17;22.33;;;;;;;-0.25;100.00;100542.28;5084464;28;20536;-72
2021/12/07 00:33:44;;;;;;;53.13;23.38;;;;;;;-0.19;100.00;100545.22;5085496;28;20028;-72
2021/12/07 00:36:10;;;;;;;54.00;23.30;;;;;;;-0.16;100.00;100547.09;5086085;28;20078;-72
2021/12/07 00:38:35;;;;;;;52.15;23.35;;;;;;;-0.15;100.00;100547.19;5084977;28;20436;-72
2021/12/07 00:41:01;;;;;;;56.53;22.90;;;;;;;-0.14;100.00;100551.47;5084763;28;20094;-71
2021/12/07 00:43:29;;;;;;;56.03;25.02;;;;;;;-0.13;100.00;100549.81;5079112;28;20115;-72
2021/12/07 00:45:57;;;;;;;56.47;25.40;;;;;;;-0.09;100.00;100552.66;5081024;28;20046;-71
2021/12/07 00:48:23;;;;;;;57.77;26.03;;;;;;;-0.04;100.00;100560.53;5080403;28;20039;-72
2021/12/07 00:50:50;;;;;;;63.03;26.55;;;;;;;0.00;100.00;100567.56;5088486;28;20023;-72
2021/12/07 00:53:15;;;;;;;67.57;27.23;;;;;;;0.04;100.00;100566.97;5088496;28;20055;-71
2021/12/07 00:55:47;;;;;;;70.03;29.55;;;;;;;0.10;100.00;100567.34;5090555;28;20418;-72
2021/12/07 00:58:18;;;;;;;60.88;26.20;;;;;;;0.20;100.00;100571.38;5085046;28;20027;-72
2021/12/07 01:00:49;;;;;;;68.30;27.55;;;;;;;0.29;100.00;100584.59;5088112;28;20039;-72
2021/12/07 01:03:15;;;;;;;70.88;27.50;;;;;;;0.31;100.00;100580.53;5083332;28;20023;-72
2021/12/07 01:05:47;;;;;;;70.82;27.75;;;;;;;0.36;100.00;100588.38;5090494;28;20030;-72
2021/12/07 01:24:43;;;;;;;86.25;30.60;;;;;;;0.86;100.00;100619.44;5088661;28;20117;-72
2021/12/07 01:27:20;;;;;;;82.63;28.38;;;;;;;0.88;100.00;100619.53;5089975;28;20043;-72
2021/12/07 01:29:52;;;;;;;81.65;27.33;;;;;;;0.91;100.00;100628.19;5087466;28;20039;-71
2021/12/07 01:32:32;;;;;;;72.28;27.35;;;;;;;1.01;100.00;100620.38;5086657;28;20026;-72
2021/12/07 01:37:55;;;;;;;78.18;25.80;;;;;;;1.13;100.00;100629.50;5090856;28;20391;-70
2021/12/07 01:40:41;;;;;;;71.15;24.45;;;;;;;1.13;100.00;100634.59;5087346;28;20135;-71
2021/12/07 01:46:21;;;;;;;86.95;27.15;;;;;;;1.22;100.00;100643.63;5087916;28;20070;-72
2021/12/07 01:59:36;;;;;;;75.22;25.33;;;;;;;1.17;100.00;100661.84;5084224;28;20181;-72
2021/12/07 02:02:12;;;;;;;85.63;25.50;;;;;;;1.18;100.00;100667.00;5082796;28;20020;-73
2021/12/07 02:04:39;;;;;;;82.00;26.65;;;;;;;1.27;100.00;100666.69;5085351;28;20034;-72
2021/12/07 02:07:05;;;;;;;85.82;25.55;;;;;;;1.32;100.00;100673.78;5082064;28;20483;-71
2021/12/07 02:09:34;;;;;;;77.38;24.50;;;;;;;1.31;100.00;100678.78;5087299;28;20046;-71
2021/12/07 02:12:01;;;;;;;84.93;22.92;;;;;;;1.32;100.00;100677.97;5084964;28;20044;-70
2021/12/07 02:14:27;;;;;;;63.70;21.00;;;;;;;1.35;100.00;100693.38;5085160;28;20499;-72
2021/12/07 02:17:22;;;;;;;79.95;21.73;;;;;;;1.37;100.00;100694.34;5084044;28;20035;-72
2021/12/07 02:19:48;;;;;;;66.50;20.10;;;;;;;1.42;100.00;100699.72;5090545;28;20036;-71
2021/12/07 02:22:13;;;;;;;72.78;19.17;;;;;;;1.45;100.00;100700.75;5080991;28;20043;-72
2021/12/07 02:24:39;;;;;;;65.93;19.63;;;;;;;1.45;100.00;100694.81;5085442;28;20028;-71
2021/12/07 02:27:06;;;;;;;66.18;18.10;;;;;;;1.50;100.00;100706.13;5088718;28;20063;-71
2021/12/07 02:29:32;;;;;;;60.67;16.63;;;;;;;1.53;100.00;100714.78;5088386;28;20671;-71
2021/12/07 02:31:59;;;;;;;57.13;16.05;;;;;;;1.54;100.00;100723.28;5088172;28;20178;-71
2021/12/07 02:34:25;;;;;;;51.10;16.30;;;;;;;1.58;100.00;100722.69;5084918;28;20046;-71
2021/12/07 02:36:51;;;;;;;52.28;14.48;;;;;;;1.55;100.00;100718.28;5086237;28;20042;-72
2021/12/07 02:39:17;;;;;;;54.10;13.48;;;;;;;1.49;100.00;100719.56;5084770;28;20097;-72
2021/12/07 02:41:43;;;;;;;56.63;13.52;;;;;;;1.51;100.00;100720.53;5082669;28;20031;-72
2021/12/07 02:44:09;;;;;;;56.80;12.50;;;;;;;1.51;100.00;100723.06;5083426;28;20089;-72
2021/12/07 02:46:36;;;;;;;38.38;10.60;;;;;;;1.48;100.00;100725.44;5082544;28;20035;-71
2021/12/07 02:49:04;;;;;;;45.15;11.05;;;;;;;1.46;100.00;100727.00;5082622;28;20609;-73
2021/12/07 02:51:30;;;;;;;45.97;10.25;;;;;;;1.52;100.00;100740.91;5083069;28;20028;-73
2021/12/07 02:53:56;;;;;;;49.67;10.07;;;;;;;1.54;100.00;100743.53;5084277;28;20027;-72
2021/12/07 02:56:22;;;;;;;42.25;9.88;;;;;;;1.47;100.00;100751.56;5085879;28;20502;-72
2021/12/07 02:58:48;;;;;;;50.85;11.30;;;;;;;1.50;100.00;100752.59;5084181;28;20106;-72
2021/12/07 03:01:24;;;;;;;50.92;8.80;;;;;;;1.49;100.00;100757.56;5086524;28;20180;-73
2021/12/07 03:04:15;;;;;;;45.40;8.93;;;;;;;1.40;100.00;100759.56;5086388;28;20077;-69
2021/12/07 03:09:52;;;;;;;45.63;8.30;;;;;;;1.40;100.00;100773.09;5085722;28;20047;-73
2021/12/07 03:26:08;;;;;;;36.90;6.68;;;;;;;1.07;100.00;100782.81;5085031;28;20050;-71
2021/12/07 03:28:42;;;;;;;31.13;5.93;;;;;;;0.95;100.00;100787.09;5086656;28;20032;-73
2021/12/07 03:31:08;;;;;;;29.63;6.63;;;;;;;1.02;100.00;100790.88;5087546;28;20020;-73
2021/12/07 03:33:34;;;;;;;36.67;6.38;;;;;;;0.99;100.00;100795.78;5084985;28;20063;-73
2021/12/07 03:36:00;;;;;;;37.33;6.30;;;;;;;0.92;100.00;100794.50;5084957;28;20047;-70
2021/12/07 03:38:26;;;;;;;33.72;7.00;;;;;;;0.96;100.00;100804.03;5086644;28;20368;-71
2021/12/07 03:40:52;;;;;;;35.60;6.35;;;;;;;0.92;100.00;100814.75;5086439;28;20536;-70
2021/12/07 03:43:17;;;;;;;43.13;6.80;;;;;;;0.91;100.00;100807.94;5085373;28;20051;-71
2021/12/07 03:45:43;;;;;;;39.55;7.53;;;;;;;0.98;100.00;100830.34;5086801;28;20020;-71
2021/12/07 03:48:10;;;;;;;33.28;6.75;;;;;;;1.04;100.00;100818.09;5081070;28;20040;-71
2021/12/07 03:50:36;;;;;;;41.80;7.60;;;;;;;1.14;100.00;100829.66;5086844;28;20151;-69
2021/12/07 03:53:02;;;;;;;37.28;6.68;;;;;;;1.13;100.00;100830.44;5085881;28;20106;-72
2021/12/07 03:55:27;;;;;;;40.28;6.88;;;;;;;1.11;100.00;100831.16;5086170;28;20035;-71
2021/12/07 03:57:53;;;;;;;38.90;7.63;;;;;;;1.08;100.00;100827.59;5086265;28;20042;-71
2021/12/07 04:00:22;;;;;;;36.65;6.50;;;;;;;1.10;100.00;100832.81;5086607;28;20028;-71
2021/12/07 04:02:50;;;;;;;37.55;5.53;;;;;;;1.05;100.00;100829.09;5089414;28;20538;-70
2021/12/07 04:05:18;;;;;;;33.95;6.47;;;;;;;1.03;100.00;100844.19;5083898;28;20058;-71
2021/12/07 04:07:45;;;;;;;33.25;6.50;;;;;;;1.03;100.00;100841.66;5086293;28;20040;-70
2021/12/07 04:10:13;;;;;;;43.33;6.05;;;;;;;1.02;100.00;100834.81;5084910;28;20036;-70
2021/12/07 04:12:39;;;;;;;37.15;6.28;;;;;;;1.06;100.00;100835.91;5082037;28;20060;-71
2021/12/07 04:15:07;;;;;;;29.20;5.95;;;;;;;1.00;100.00;100845.63;5085286;28;20063;-71
2021/12/07 04:17:32;;;;;;;38.22;6.95;;;;;;;0.96;100.00;100854.66;5084866;28;20028;-70
2021/12/07 04:19:58;;;;;;;33.38;6.78;;;;;;;0.92;100.00;100850.19;5086060;28;20463;-73
2021/12/07 04:22:24;;;;;;;40.17;6.43;;;;;;;0.91;100.00;100832.34;5086635;28;20060;-71
2021/12/07 04:24:49;;;;;;;35.80;6.55;;;;;;;0.80;100.00;100842.66;5088083;28;20028;-72
2021/12/07 04:27:15;;;;;;;40.25;5.82;;;;;;;0.78;100.00;100856.84;5084603;28;20031;-71
2021/12/07 04:29:40;;;;;;;36.28;6.05;;;;;;;0.83;100.00;100857.16;5084119;28;20039;-71
2021/12/07 04:32:06;;;;;;;33.97;6.30;;;;;;;0.85;100.00;100858.16;5085828;28;20726;-71
2021/12/07 04:34:32;;;;;;;29.38;5.78;;;;;;;0.83;100.00;100862.22;5085928;28;20036;-72
2021/12/07 04:36:57;;;;;;;36.08;5.95;;;;;;;0.76;100.00;100855.00;5083743;28;20689;-70
2021/12/07 04:39:23;;;;;;;37.20;5.75;;;;;;;0.71;100.00;100853.81;5083629;28;20355;-70
2021/12/07 04:41:50;;;;;;;35.72;7.07;;;;;;;0.67;100.00;100875.53;5085988;28;20540;-70
2021/12/07 04:44:15;;;;;;;26.70;5.68;;;;;;;0.65;100.00;100877.06;5091039;28;20039;-70
2021/12/07 04:46:53;;;;;;;36.60;5.95;;;;;;;0.71;100.00;100881.66;5085512;28;20063;-70
2021/12/07 04:49:47;;;;;;;45.13;6.28;;;;;;;0.75;100.00;100869.31;5082963;28;20046;-70
2021/12/07 04:57:43;;;;;;;30.23;6.18;;;;;;;0.62;100.00;100871.81;5089219;28;20058;-70
2021/12/07 05:00:18;;;;;;;39.92;6.05;;;;;;;0.63;100.00;100849.91;5083297;28;20036;-70
2021/12/07 05:02:49;;;;;;;35.58;5.90;;;;;;;0.67;100.00;100893.25;5084948;28;20551;-74
2021/12/07 05:05:16;;;;;;;39.60;6.30;;;;;;;0.59;100.00;100889.28;5085888;28;20043;-71
2021/12/07 05:07:48;;;;;;;37.53;5.88;;;;;;;0.50;100.00;100874.38;5086010;28;20036;-71
2021/12/07 05:10:27;;;;;;;38.85;6.50;;;;;;;0.57;100.00;100889.97;5085992;28;20043;-71
2021/12/07 05:15:58;;;;;;;34.33;4.88;;;;;;;0.62;100.00;100898.75;5084510;28;20035;-71
2021/12/07 05:39:50;;;;;;;26.65;4.97;;;;;;;0.49;100.00;100927.41;5088772;28;20067;-73
2021/12/07 05:42:16;;;;;;;37.53;6.22;;;;;;;0.45;100.00;100938.06;5089030;28;20032;-71
2021/12/07 05:44:42;;;;;;;32.13;5.53;;;;;;;0.42;100.00;100950.50;5087503;28;20078;-71
2021/12/07 05:47:08;;;;;;;33.33;5.88;;;;;;;0.45;100.00;100949.06;5087786;28;20153;-71
2021/12/07 05:49:34;;;;;;;38.47;6.07;;;;;;;0.47;100.00;100957.63;5089678;28;20036;-72
2021/12/07 05:52:00;;;;;;;37.70;5.95;;;;;;;0.42;100.00;100958.97;5093867;28;20034;-71
2021/12/07 05:54:25;;;;;;;34.55;6.18;;;;;;;0.43;100.00;100960.75;5084981;28;20051;-70
2021/12/07 05:56:51;;;;;;;35.70;5.55;;;;;;;0.41;100.00;100956.34;5089488;28;20085;-71
2021/12/07 05:59:16;;;;;;;31.38;5.97;;;;;;;0.49;100.00;100971.28;5088753;28;20059;-71
2021/12/07 06:01:42;;;;;;;45.75;7.10;;;;;;;0.42;100.00;100974.13;5088749;28;20487;-73
2021/12/07 06:04:07;;;;;;;38.45;6.07;;;;;;;0.33;100.00;100975.16;5088839;28;20032;-71
2021/12/07 06:06:33;;;;;;;27.50;5.57;;;;;;;0.31;100.00;100972.53;5084644;28;20721;-72
2021/12/07 06:08:58;;;;;;;34.50;5.72;;;;;;;0.31;100.00;100977.59;5086871;28;20044;-70
2021/12/07 06:11:24;;;;;;;33.72;6.20;;;;;;;0.40;100.00;100970.63;5088132;28;20028;-69
2021/12/07 06:13:50;;;;;;;34.55;6.20;;;;;;;0.38;100.00;100971.31;5086271;28;20030;-71
2021/12/07 06:16:16;;;;;;;39.17;6.22;;;;;;;0.38;100.00;100972.19;5081460;28;20067;-70
2021/12/07 06:18:43;;;;;;;29.52;6.47;;;;;;;0.34;100.00;100974.38;5085283;28;20027;-71
2021/12/07 06:21:10;;;;;;;34.70;5.93;;;;;;;0.29;100.00;100968.13;5088625;28;20042;-71
2021/12/07 06:23:36;;;;;;;35.58;6.22;;;;;;;0.16;100.00;100953.75;5084544;28;20028;-71
2021/12/07 06:26:02;;;;;;;40.83;5.75;;;;;;;0.09;100.00;100954.94;5083894;28;20355;-73
2021/12/07 06:28:28;;;;;;;34.22;6.35;;;;;;;0.04;100.00;100973.09;5085270;28;20129;-70
2021/12/07 06:30:53;;;;;;;32.05;5.60;;;;;;;0.02;100.00;100975.53;5087921;28;20036;-70
2021/12/07 06:33:21;;;;;;;33.78;6.28;;;;;;;-0.03;100.00;100982.75;5087326;28;20112;-71
2021/12/07 06:35:49;;;;;;;29.48;6.72;;;;;;;-0.03;100.00;100990.34;5086071;28;20024;-71
2021/12/07 06:38:17;;;;;;;33.17;7.50;;;;;;;-0.06;100.00;100994.28;5087481;28;20587;-71
2021/12/07 06:40:43;;;;;;;35.45;8.07;;;;;;;-0.07;100.00;100990.88;5089593;28;20044;-69
2021/12/07 06:43:08;;;;;;;36.45;9.88;;;;;;;-0.05;100.00;100989.38;5089436;28;20422;-71
2021/12/07 06:45:34;;;;;;;45.45;11.00;;;;;;;-0.08;100.00;100993.31;5090110;28;20026;-71
2021/12/07 06:47:59;;;;;;;41.42;11.00;;;;;;;-0.09;100.00;100977.28;5082233;28;20044;-70
2021/12/07 06:50:25;;;;;;;42.72;12.65;;;;;;;-0.07;100.00;100990.00;5087046;28;20028;-70
2021/12/07 06:52:52;;;;;;;46.90;13.30;;;;;;;-0.04;100.00;100990.25;5087416;28;20028;-71
2021/12/07 06:55:18;;;;;;;47.15;14.73;;;;;;;-0.09;100.00;100989.03;5084864;28;20039;-71
2021/12/07 06:57:43;;;;;;;56.30;14.63;;;;;;;-0.14;100.00;100992.88;5085421;28;20020;-71
2021/12/07 07:00:11;;;;;;;57.53;16.42;;;;;;;-0.16;100.00;100991.88;5086218;28;20032;-71
2021/12/07 07:02:36;;;;;;;57.38;16.55;;;;;;;-0.14;100.00;100988.69;5087040;28;20032;-71
2021/12/07 07:05:03;;;;;;;60.25;17.38;;;;;;;-0.19;100.00;100999.22;5089611;28;20502;-73
2021/12/07 07:07:28;;;;;;;63.38;18.95;;;;;;;-0.19;100.00;101007.69;5088122;28;20906;-71
2021/12/07 07:09:54;;;;;;;55.28;17.67;;;;;;;-0.20;100.00;101012.63;5088831;28;20058;-71
2021/12/07 07:12:19;;;;;;;59.03;19.48;;;;;;;-0.23;100.00;101008.25;5089737;28;20504;-72
2021/12/07 07:14:46;;;;;;;63.60;18.52;;;;;;;-0.27;100.00;101012.19;5087818;28;20489;-71
2021/12/07 07:17:11;;;;;;;65.65;20.35;;;;;;;-0.21;100.00;101001.66;5087349;28;20440;-71
2021/12/07 07:19:37;;;;;;;67.63;20.40;;;;;;;-0.23;100.00;101008.25;5085104;28;20020;-72
2021/12/07 07:22:03;;;;;;;69.60;21.58;;;;;;;-0.23;100.00;101005.72;5087861;28;20040;-72
2021/12/07 07:24:30;;;;;;;72.20;22.02;;;;;;;-0.28;100.00;100999.44;5087923;28;20023;-71
2021/12/07 07:26:56;;;;;;;67.53;20.30;;;;;;;-0.26;100.00;101005.47;5087791;28;20023;-71
2021/12/07 07:29:21;;;;;;;69.10;21.17;;;;;;;-0.27;100.00;101006.25;5082376;28;20564;-73
2021/12/07 07:31:46;;;;;;;71.18;21.10;;;;;;;-0.27;100.00;101006.25;5081536;28;20321;-72
2021/12/07 07:34:12;;;;;;;71.10;21.05;;;;;;;-0.25;100.00;101024.06;5086743;28;20028;-72
2021/12/07 07:36:37;;;;;;;69.93;21.42;;;;;;;-0.21;100.00;101023.53;5086273;28;20073;-71
2021/12/07 07:39:04;;;;;;;83.43;22.95;;;;;;;-0.17;100.00;101021.34;5086330;28;20466;-72
2021/12/07 07:41:29;;;;;;;79.10;21.20;;;;;;;-0.13;100.00;101024.94;5087380;28;20031;-73
2021/12/07 07:43:55;;;;;;;79.20;22.95;;;;;;;-0.09;100.00;101030.34;5088019;28;20389;-72
2021/12/07 07:46:20;;;;;;;72.40;22.88;;;;;;;-0.02;100.00;101030.03;5089700;28;20066;-72
2021/12/07 07:48:46;;;;;;;75.25;23.05;;;;;;;0.00;100.00;101022.56;5088302;28;20034;-71
2021/12/07 07:51:12;;;;;;;73.90;22.70;;;;;;;0.04;100.00;101019.47;5086300;28;20040;-71
2021/12/07 07:53:38;;;;;;;82.45;23.10;;;;;;;0.06;100.00;101007.84;5087309;28;20024;-72
2021/12/07 07:56:03;;;;;;;77.47;22.05;;;;;;;0.08;100.00;101015.53;5088691;28;20036;-71
2021/12/07 07:58:29;;;;;;;70.72;20.88;;;;;;;0.11;100.00;101005.63;5089356;28;20762;-71
2021/12/07 08:00:55;;;;;;;71.95;22.27;;;;;;;0.13;100.00;101010.03;5085244;28;20473;-73
2021/12/07 08:03:20;;;;;;;83.93;22.30;;;;;;;0.23;100.00;101003.97;5087803;28;20028;-71
2021/12/07 08:05:46;;;;;;;73.97;20.77;;;;;;;0.28;100.00;101005.19;5087610;28;20073;-72
2021/12/07 08:08:11;;;;;;;70.38;20.13;;;;;;;0.38;100.00;100999.13;5089932;28;20036;-71
2021/12/07 08:10:37;;;;;;;77.95;20.48;;;;;;;0.46;100.00;101000.53;5083953;28;20093;-72
2021/12/07 08:13:06;;;;;;;62.85;19.55;;;;;;;0.55;100.00;101008.81;5086436;28;20070;-71
2021/12/07 08:15:36;;;;;;;76.53;21.10;;;;;;;0.75;100.00;101012.72;5089595;28;20068;-71
2021/12/07 08:18:02;;;;;;;72.47;21.05;;;;;;;0.91;100.00;101007.94;5085428;28;20073;-73
2021/12/07 08:20:28;;;;;;;75.80;22.88;;;;;;;0.97;100.00;101012.50;5087423;28;20032;-72
2021/12/07 08:22:54;;;;;;;75.55;21.92;;;;;;;1.03;100.00;101016.38;5086123;28;20042;-72
2021/12/07 08:25:20;;;;;;;76.88;22.13;;;;;;;1.11;100.00;101023.59;5083791;28;20550;-74
2021/12/07 08:27:45;;;;;;;69.30;20.35;;;;;;;1.18;100.00;101030.84;5085344;28;20027;-71
2021/12/07 08:30:12;;;;;;;55.33;17.67;;;;;;;1.22;100.00;101031.16;5087215;28;20030;-73
2021/12/07 08:32:39;;;;;;;70.72;20.50;;;;;;;1.31;100.00;101034.31;5083446;28;20024;-72
2021/12/07 08:35:05;;;;;;;85.57;22.10;;;;;;;1.40;100.00;101035.72;5088311;28;20146;-72
2021/12/07 08:37:31;;;;;;;66.25;21.38;;;;;;;1.40;100.00;101025.59;5085822;28;20095;-72
2021/12/07 08:39:56;;;;;;;76.15;21.10;;;;;;;1.43;100.00;101034.25;5087464;28;20521;-72
2021/12/07 08:42:22;;;;;;;63.97;17.92;;;;;;;1.43;100.00;101033.38;5089230;28;20471;-72
2021/12/07 08:44:47;;;;;;;50.72;15.27;;;;;;;1.38;100.00;101028.00;5086689;28;20363;-73
2021/12/07 08:47:13;;;;;;;49.20;15.13;;;;;;;1.33;100.00;101026.81;5087820;28;20479;-71
2021/12/07 08:49:38;;;;;;;45.13;14.25;;;;;;;1.33;100.00;101037.84;5087525;28;20367;-71
2021/12/07 08:52:04;;;;;;;49.40;13.50;;;;;;;1.43;100.00;101036.78;5088435;28;20043;-72
2021/12/07 08:59:46;;;;;;;39.67;15.13;;;;;;;2.14;100.00;101022.91;5087375;28;20105;-72
2021/12/07 09:02:25;;;;;;;41.22;13.65;;;;;;;2.45;100.00;101023.97;5087360;28;20039;-71
2021/12/07 09:04:53;;;;;;;;;;;;;;;2.86;100.00;101019.78;5083944;28;20028;-72
2021/12/07 09:07:19;;;;;;;35.17;10.95;;;;;;;3.33;100.00;101014.13;5088491;28;19920;-71
2021/12/07 09:09:45;;;;;;;34.55;9.02;;;;;;;3.81;100.00;101002.53;5087428;28;20026;-72
2021/12/07 09:12:12;;;;;;;26.17;8.13;;;;;;;4.37;100.00;101002.31;5090220;28;20061;-71
2021/12/07 09:14:38;;;;;;;32.83;8.13;;;;;;;4.72;100.00;100999.09;5087545;28;20059;-72
2021/12/07 09:17:06;;;;;;;21.95;6.38;;;;;;;5.05;100.00;100999.16;5087307;28;20123;-71
2021/12/07 09:19:33;;;;;;;17.92;5.88;;;;;;;5.68;100.00;101004.91;5091556;28;20012;-73
2021/12/07 09:21:59;;;;;;;18.95;5.15;;;;;;;6.02;100.00;100995.59;5089575;28;20107;-70
2021/12/07 09:24:25;;;;;;;14.48;3.72;;;;;;;6.29;97.25;101002.81;5088505;28;20444;-71
2021/12/07 09:26:53;;;;;;;14.75;4.32;;;;;;;6.15;92.16;100997.91;5090929;28;20126;-71
2021/12/07 09:29:19;;;;;;;13.05;4.15;;;;;;;5.96;92.14;101002.06;5088698;28;20671;-71
2021/12/07 09:31:44;;;;;;;16.38;3.83;;;;;;;6.20;91.10;100998.16;5089856;28;20043;-71
2021/12/07 09:34:11;;;;;;;17.73;4.18;;;;;;;7.05;91.27;101005.47;5090796;28;20038;-73
2021/12/07 09:36:38;;;;;;;13.85;3.80;;;;;;;7.72;84.56;101013.47;5092032;28;20196;-71
2021/12/07 09:39:06;;;;;;;13.82;3.50;;;;;;;8.34;84.51;100994.66;5085116;28;20419;-72
2021/12/07 09:41:32;;;;;;;14.82;3.17;;;;;;;8.82;75.39;100992.25;5087145;28;20036;-70
2021/12/07 09:43:58;;;;;;;11.35;3.33;;;;;;;8.94;76.05;100990.13;5088999;28;20085;-71
2021/12/07 09:46:23;;;;;;;15.65;3.70;;;;;;;9.44;73.91;100995.31;5090469;28;20032;-70
2021/12/07 09:48:49;;;;;;;11.00;3.10;;;;;;;9.74;71.97;100983.50;5089632;28;20085;-71
2021/12/07 09:51:18;;;;;;;12.82;2.92;;;;;;;10.11;70.48;100988.13;5090078;28;20028;-73
2021/12/07 09:53:46;;;;;;;10.00;3.13;;;;;;;10.20;69.02;100990.16;5088885;28;20028;-71
2021/12/07 09:56:13;;;;;;;14.27;3.38;;;;;;;10.46;66.90;100998.69;5090888;28;20044;-72
2021/12/07 09:58:39;;;;;;;9.18;3.55;;;;;;;10.44;67.89;100992.63;5087118;28;20036;-70
2021/12/07 10:01:08;;;;;;;8.80;2.97;;;;;;;10.73;67.06;100996.06;5087922;28;20433;-71
2021/12/07 10:03:34;;;;;;;10.70;2.78;;;;;;;11.12;63.84;100991.19;5087274;28;20020;-70
2021/12/07 10:05:59;;;;;;;14.02;3.17;;;;;;;11.68;64.15;100976.38;5091099;28;20113;-71
2021/12/07 10:08:25;;;;;;;11.80;3.00;;;;;;;11.83;62.33;100970.78;5087771;28;20030;-70
2021/12/07 10:10:55;;;;;;;9.80;2.85;;;;;;;12.01;61.09;100985.78;5090440;28;20024;-70
2021/12/07 10:13:22;;;;;;;10.25;3.15;;;;;;;12.07;59.18;100978.19;5086392;28;20115;-71
2021/12/07 10:15:48;;;;;;;11.60;3.20;;;;;;;12.35;59.85;100990.91;5090331;28;20439;-71
2021/12/07 10:18:18;;;;;;;11.02;2.65;;;;;;;12.70;60.92;100975.34;5089231;28;20035;-70
2021/12/07 10:20:45;;;;;;;12.00;3.08;;;;;;;12.84;59.34;100971.31;5089693;28;20023;-70
2021/12/07 10:23:13;;;;;;;12.90;3.00;;;;;;;12.97;58.86;100967.28;5084639;28;20047;-70
2021/12/07 10:25:40;;;;;;;13.27;2.65;;;;;;;13.00;55.38;100961.34;5088527;28;20036;-72
2021/12/07 10:28:24;;;;;;;9.38;2.90;;;;;;;13.51;61.69;100971.78;5089287;28;20040;-71
2021/12/07 10:30:50;;;;;;;12.80;3.15;;;;;;;13.82;54.39;100961.97;5083547;28;20591;-72
2021/12/07 10:33:29;;;;;;;8.52;2.83;;;;;;;14.34;58.43;100966.22;5086938;28;20023;-72
2021/12/07 10:36:15;;;;;;;9.52;3.00;;;;;;;14.33;54.14;100967.09;5090025;28;20074;-70
2021/12/07 10:38:45;;;;;;;10.30;2.83;;;;;;;14.29;51.06;100949.78;5090307;28;20027;-71
2021/12/07 10:41:13;;;;;;;9.55;2.65;;;;;;;14.48;50.80;100953.50;5066713;28;20052;-72
2021/12/07 10:44:09;;;;;;;11.73;3.35;;;;;;;14.72;53.88;100940.03;5087796;28;20040;-70
2021/12/07 10:46:43;;;;;;;10.15;2.90;;;;;;;14.92;49.98;100938.53;5092402;28;20101;-71
2021/12/07 10:49:10;;;;;;;9.65;2.47;;;;;;;14.82;49.08;100925.47;5089191;28;20012;-70
2021/12/07 10:51:35;;;;;;;12.90;2.95;;;;;;;14.92;49.92;100922.13;5087696;28;20123;-73
2021/12/07 10:54:01;;;;;;;15.48;3.33;;;;;;;14.80;48.97;100911.63;5085373;28;20153;-72
2021/12/07 10:56:32;;;;;;;11.95;2.70;;;;;;;14.93;50.79;100914.41;5085787;28;21098;-73
2021/12/07 10:59:04;;;;;;;10.70;3.03;;;;;;;14.96;48.78;100906.66;5082872;28;20055;-71
2021/12/07 11:01:38;;;;;;;12.20;2.90;;;;;;;15.12;49.59;100896.47;5087513;28;20151;-71
2021/12/07 11:04:30;;;;;;;11.93;2.80;;;;;;;15.49;53.27;100893.34;5085253;28;20032;-72
2021/12/07 11:07:03;;;;;;;12.48;2.83;;;;;;;15.79;46.91;100877.19;5084081;28;20055;-72
2021/12/07 11:09:29;;;;;;;12.38;2.50;;;;;;;15.25;47.85;100877.59;5086213;28;20036;-72
2021/12/07 11:12:09;;;;;;;13.98;3.35;;;;;;;15.26;47.16;100881.91;5085516;28;20035;-72
2021/12/07 11:14:40;;;;;;;9.85;2.90;;;;;;;15.12;48.95;100873.16;5085586;28;20024;-72
2021/12/07 11:17:09;;;;;;;9.55;3.53;;;;;;;15.02;48.32;100875.63;5085716;28;20166;-71
2021/12/07 11:19:35;;;;;;;8.48;2.80;;;;;;;14.64;46.58;100877.81;5088192;28;20069;-72
2021/12/07 11:22:00;;;;;;;12.32;2.83;;;;;;;14.35;49.21;100861.91;5090209;28;20028;-72
2021/12/07 11:24:43;;;;;;;11.52;2.70;;;;;;;13.72;49.27;100867.94;5089028;28;20493;-72
2021/12/07 11:30:12;;;;;;;14.38;3.28;;;;;;;10.67;58.56;100873.31;5086916;28;20120;-72
2021/12/07 11:32:47;;;;;;;9.25;2.83;;;;;;;9.79;63.09;100860.41;5086271;28;20055;-71
2021/12/07 11:35:26;;;;;;;10.85;3.00;;;;;;;8.89;65.06;100871.13;5085005;28;20078;-71
2021/12/07 11:37:55;;;;;;;15.40;3.15;;;;;;;8.36;69.54;100866.63;5086703;28;20027;-71
2021/12/07 11:40:31;;;;;;;13.90;3.30;;;;;;;8.14;68.40;100867.50;5087005;28;20043;-72
2021/12/07 11:42:56;;;;;;;11.63;3.35;;;;;;;7.76;70.61;100866.88;5085538;28;20348;-72
2021/12/07 11:45:28;;;;;;;14.55;3.10;;;;;;;7.41;69.89;100860.38;5084992;28;20040;-72
2021/12/07 11:47:57;;;;;;;16.80;3.55;;;;;;;7.23;74.67;100860.47;5085677;28;20028;-73
2021/12/07 11:50:31;;;;;;;12.40;3.88;;;;;;;7.26;74.15;100861.47;5085697;28;20043;-72
2021/12/07 11:53:00;;;;;;;15.32;3.78;;;;;;;6.94;72.86;100849.91;5087958;28;20359;-72
2021/12/07 11:55:26;;;;;;;12.88;3.85;;;;;;;6.82;73.35;100856.19;5088201;28;20529;-71
2021/12/07 11:57:53;;;;;;;14.95;3.95;;;;;;;6.72;74.67;100847.22;5089610;28;20020;-72
2021/12/07 12:00:22;;;;;;;14.07;3.75;;;;;;;6.64;74.49;100848.59;5084417;28;20103;-71
2021/12/07 12:02:48;;;;;;;;;;;;;;;6.81;74.13;100850.19;5088995;28;20096;-71
2021/12/07 12:05:13;;;;;;;19.77;4.43;;;;;;;6.58;74.50;100838.97;5086747;28;20373;-71
2021/12/07 12:07:42;;;;;;;15.57;5.20;;;;;;;6.50;74.40;100829.25;5086922;28;20081;-72
2021/12/07 12:10:10;;;;;;;14.77;4.53;;;;;;;6.49;76.90;100823.22;5086506;28;20032;-73
2021/12/07 12:13:13;;;;;;;18.67;4.45;;;;;;;6.61;75.69;100828.91;5085612;28;20130;-73
2021/12/07 12:15:54;;;;;;;15.77;4.25;;;;;;;6.69;75.07;100829.22;5087821;28;20449;-71
2021/12/07 12:18:45;;;;;;;17.05;4.43;;;;;;;6.75;75.68;100819.28;5087374;28;20118;-73
2021/12/07 12:21:33;;;;;;;15.05;3.83;;;;;;;6.66;76.22;100811.19;5086141;28;20032;-73
2021/12/07 12:24:18;;;;;;;14.93;4.22;;;;;;;6.65;75.59;100804.34;5088974;28;20348;-73
2021/12/07 12:26:45;;;;;;;13.57;3.83;;;;;;;6.65;74.12;100786.47;5087511;28;20444;-73
2021/12/07 12:29:23;;;;;;;10.65;4.03;;;;;;;6.56;74.91;100770.75;5082038;28;20044;-73
2021/12/07 12:31:57;;;;;;;13.57;3.67;;;;;;;6.51;76.23;100775.66;5084179;28;20024;-71
2021/12/07 12:34:31;;;;;;;14.48;3.70;;;;;;;6.50;78.64;100770.50;5090153;28;20028;-71
2021/12/07 12:37:02;;;;;;;11.73;3.78;;;;;;;6.58;78.33;100774.22;5086156;28;20355;-70
2021/12/07 12:39:48;;;;;;;12.07;3.30;;;;;;;6.57;76.77;100773.38;5086973;28;20046;-71
2021/12/07 12:42:40;;;;;;;10.32;3.28;;;;;;;6.64;77.19;100772.81;5084025;28;20142;-71
2021/12/07 12:45:17;;;;;;;15.93;3.30;;;;;;;6.52;76.07;100761.19;5085055;28;20020;-73
2021/12/07 12:47:43;;;;;;;17.42;3.33;;;;;;;6.42;75.59;100760.78;5085381;28;20107;-71
2021/12/07 12:50:16;;;;;;;9.27;3.25;;;;;;;6.33;76.03;100739.09;5082926;28;20128;-72